sensor_id;sensor_type;location;lat;lon;timestamp;temperature;humidity
22714;DHT22;11524;50.846;4.326;2023-04-23T00:00:02;19.60;66.10
22714;DHT22;11524;50.846;4.326;2023-04-23T00:02:29;19.50;65.80
22714;DHT22;11524;50.846;4.326;2023-04-23T00:04:56;19.60;65.90
22714;DHT22;11524;50.846;4.326;2023-04-23T00:07:26;19.60;65.80
22714;DHT22;11524;50.846;4.326;2023-04-23T00:09:56;19.60;65.70
22714;DHT22;11524;50.846;4.326;2023-04-23T00:12:22;19.60;65.70
22714;DHT22;11524;50.846;4.326;2023-04-23T00:14:49;19.60;66.10
22714;DHT22;11524;50.846;4.326;2023-04-23T00:17:14;19.50;66.20
22714;DHT22;11524;50.846;4.326;2023-04-23T00:19:40;19.50;65.90
22714;DHT22;11524;50.846;4.326;2023-04-23T00:22:06;19.60;66.10
22714;DHT22;11524;50.846;4.326;2023-04-23T00:24:32;19.50;65.80
22714;DHT22;11524;50.846;4.326;2023-04-23T00:27:00;19.50;66.20
22714;DHT22;11524;50.846;4.326;2023-04-23T00:29:26;19.50;66.00
22714;DHT22;11524;50.846;4.326;2023-04-23T00:31:52;19.60;66.40
22714;DHT22;11524;50.846;4.326;2023-04-23T00:34:17;19.50;66.40
22714;DHT22;11524;50.846;4.326;2023-04-23T00:36:43;19.60;66.40
22714;DHT22;11524;50.846;4.326;2023-04-23T00:39:08;19.60;66.30
22714;DHT22;11524;50.846;4.326;2023-04-23T00:41:36;19.60;66.30
22714;DHT22;11524;50.846;4.326;2023-04-23T00:44:01;19.60;66.70
22714;DHT22;11524;50.846;4.326;2023-04-23T00:46:27;19.60;66.30
22714;DHT22;11524;50.846;4.326;2023-04-23T00:48:53;19.60;66.30
22714;DHT22;11524;50.846;4.326;2023-04-23T00:51:20;19.60;66.30
22714;DHT22;11524;50.846;4.326;2023-04-23T00:53:46;19.60;66.50
22714;DHT22;11524;50.846;4.326;2023-04-23T00:56:12;19.60;66.80
22714;DHT22;11524;50.846;4.326;2023-04-23T00:58:39;19.60;66.50
22714;DHT22;11524;50.846;4.326;2023-04-23T01:01:05;19.60;63.30
22714;DHT22;11524;50.846;4.326;2023-04-23T01:03:34;19.50;61.50
22714;DHT22;11524;50.846;4.326;2023-04-23T01:06:01;19.50;61.20
22714;DHT22;11524;50.846;4.326;2023-04-23T01:08:27;19.50;61.30
22714;DHT22;11524;50.846;4.326;2023-04-23T01:10:53;19.50;61.70
22714;DHT22;11524;50.846;4.326;2023-04-23T01:13:19;19.50;61.40
22714;DHT22;11524;50.846;4.326;2023-04-23T01:15:46;19.40;61.90
22714;DHT22;11524;50.846;4.326;2023-04-23T01:18:13;19.40;61.60
22714;DHT22;11524;50.846;4.326;2023-04-23T01:20:39;19.40;61.40
22714;DHT22;11524;50.846;4.326;2023-04-23T01:23:07;19.40;61.40
22714;DHT22;11524;50.846;4.326;2023-04-23T01:25:33;19.40;61.60
22714;DHT22;11524;50.846;4.326;2023-04-23T01:27:59;19.40;61.20
22714;DHT22;11524;50.846;4.326;2023-04-23T01:30:26;19.40;61.30
22714;DHT22;11524;50.846;4.326;2023-04-23T01:32:54;19.30;61.20
22714;DHT22;11524;50.846;4.326;2023-04-23T01:35:21;19.30;61.00
22714;DHT22;11524;50.846;4.326;2023-04-23T01:37:48;19.30;61.30
22714;DHT22;11524;50.846;4.326;2023-04-23T01:40:14;19.30;60.90
22714;DHT22;11524;50.846;4.326;2023-04-23T01:42:40;19.30;61.00
22714;DHT22;11524;50.846;4.326;2023-04-23T01:45:06;19.30;61.20
22714;DHT22;11524;50.846;4.326;2023-04-23T01:47:33;19.30;60.90
22714;DHT22;11524;50.846;4.326;2023-04-23T01:49:59;19.30;60.90
22714;DHT22;11524;50.846;4.326;2023-04-23T01:52:25;19.30;60.80
22714;DHT22;11524;50.846;4.326;2023-04-23T01:54:51;19.30;60.60
22714;DHT22;11524;50.846;4.326;2023-04-23T01:57:17;19.30;60.20
22714;DHT22;11524;50.846;4.326;2023-04-23T01:59:48;19.30;60.30
22714;DHT22;11524;50.846;4.326;2023-04-23T02:02:14;19.30;60.30
22714;DHT22;11524;50.846;4.326;2023-04-23T02:04:43;19.30;60.00
22714;DHT22;11524;50.846;4.326;2023-04-23T02:07:09;19.30;60.10
22714;DHT22;11524;50.846;4.326;2023-04-23T02:09:35;19.30;60.30
22714;DHT22;11524;50.846;4.326;2023-04-23T02:12:01;19.30;60.10
22714;DHT22;11524;50.846;4.326;2023-04-23T02:14:27;19.30;60.10
22714;DHT22;11524;50.846;4.326;2023-04-23T02:16:53;19.30;60.40
22714;DHT22;11524;50.846;4.326;2023-04-23T02:19:19;19.30;59.80
22714;DHT22;11524;50.846;4.326;2023-04-23T02:21:44;19.30;60.10
22714;DHT22;11524;50.846;4.326;2023-04-23T02:24:10;19.30;59.90
22714;DHT22;11524;50.846;4.326;2023-04-23T02:26:37;19.30;60.40
22714;DHT22;11524;50.846;4.326;2023-04-23T02:29:03;19.30;60.20
22714;DHT22;11524;50.846;4.326;2023-04-23T02:31:29;19.30;60.40
22714;DHT22;11524;50.846;4.326;2023-04-23T02:33:55;19.30;60.50
22714;DHT22;11524;50.846;4.326;2023-04-23T02:36:20;19.30;60.20
22714;DHT22;11524;50.846;4.326;2023-04-23T02:38:46;19.30;60.30
22714;DHT22;11524;50.846;4.326;2023-04-23T02:41:13;19.30;60.50
22714;DHT22;11524;50.846;4.326;2023-04-23T02:43:39;19.30;60.40
22714;DHT22;11524;50.846;4.326;2023-04-23T02:46:05;19.30;60.50
22714;DHT22;11524;50.846;4.326;2023-04-23T02:48:35;19.30;60.90
22714;DHT22;11524;50.846;4.326;2023-04-23T02:51:01;19.30;60.40
22714;DHT22;11524;50.846;4.326;2023-04-23T02:53:27;19.20;60.40
22714;DHT22;11524;50.846;4.326;2023-04-23T02:55:53;19.30;60.50
22714;DHT22;11524;50.846;4.326;2023-04-23T02:58:18;19.30;60.50
22714;DHT22;11524;50.846;4.326;2023-04-23T03:00:44;19.20;60.50
22714;DHT22;11524;50.846;4.326;2023-04-23T03:03:10;19.20;60.30
22714;DHT22;11524;50.846;4.326;2023-04-23T03:05:36;19.20;60.20
22714;DHT22;11524;50.846;4.326;2023-04-23T03:08:01;19.20;60.70
22714;DHT22;11524;50.846;4.326;2023-04-23T03:10:27;19.20;60.20
22714;DHT22;11524;50.846;4.326;2023-04-23T03:12:52;19.20;60.10
22714;DHT22;11524;50.846;4.326;2023-04-23T03:15:18;19.20;60.20
22714;DHT22;11524;50.846;4.326;2023-04-23T03:17:44;19.20;60.20
22714;DHT22;11524;50.846;4.326;2023-04-23T03:20:10;19.20;59.90
22714;DHT22;11524;50.846;4.326;2023-04-23T03:22:36;19.20;59.70
22714;DHT22;11524;50.846;4.326;2023-04-23T03:25:01;19.20;60.10
22714;DHT22;11524;50.846;4.326;2023-04-23T03:27:28;19.20;60.00
22714;DHT22;11524;50.846;4.326;2023-04-23T03:29:54;19.20;60.10
22714;DHT22;11524;50.846;4.326;2023-04-23T03:32:19;19.20;60.00
22714;DHT22;11524;50.846;4.326;2023-04-23T03:34:45;19.20;60.10
22714;DHT22;11524;50.846;4.326;2023-04-23T03:37:11;19.20;59.90
22714;DHT22;11524;50.846;4.326;2023-04-23T03:39:37;19.20;60.00
22714;DHT22;11524;50.846;4.326;2023-04-23T03:42:03;19.20;60.20
22714;DHT22;11524;50.846;4.326;2023-04-23T03:44:31;19.10;60.10
22714;DHT22;11524;50.846;4.326;2023-04-23T03:46:57;19.10;60.10
22714;DHT22;11524;50.846;4.326;2023-04-23T03:49:25;19.10;60.00
22714;DHT22;11524;50.846;4.326;2023-04-23T03:51:50;19.20;60.20
22714;DHT22;11524;50.846;4.326;2023-04-23T03:54:16;19.10;60.00
22714;DHT22;11524;50.846;4.326;2023-04-23T03:56:42;19.10;60.00
22714;DHT22;11524;50.846;4.326;2023-04-23T03:59:08;19.10;60.10
22714;DHT22;11524;50.846;4.326;2023-04-23T04:01:34;19.10;60.00
22714;DHT22;11524;50.846;4.326;2023-04-23T04:04:00;19.10;60.10
22714;DHT22;11524;50.846;4.326;2023-04-23T04:06:26;19.10;60.00
22714;DHT22;11524;50.846;4.326;2023-04-23T04:08:52;19.10;60.40
22714;DHT22;11524;50.846;4.326;2023-04-23T04:11:17;19.10;60.00
22714;DHT22;11524;50.846;4.326;2023-04-23T04:13:43;19.10;60.10
22714;DHT22;11524;50.846;4.326;2023-04-23T04:16:08;19.10;60.00
22714;DHT22;11524;50.846;4.326;2023-04-23T04:18:35;19.10;60.00
22714;DHT22;11524;50.846;4.326;2023-04-23T04:21:01;19.10;60.20
22714;DHT22;11524;50.846;4.326;2023-04-23T04:23:26;19.10;60.00
22714;DHT22;11524;50.846;4.326;2023-04-23T04:25:53;19.10;59.90
22714;DHT22;11524;50.846;4.326;2023-04-23T04:28:21;19.10;60.40
22714;DHT22;11524;50.846;4.326;2023-04-23T04:30:46;19.10;59.80
22714;DHT22;11524;50.846;4.326;2023-04-23T04:33:14;19.10;59.60
22714;DHT22;11524;50.846;4.326;2023-04-23T04:35:40;19.10;59.80
22714;DHT22;11524;50.846;4.326;2023-04-23T04:38:07;19.10;59.70
22714;DHT22;11524;50.846;4.326;2023-04-23T04:40:33;19.10;59.80
22714;DHT22;11524;50.846;4.326;2023-04-23T04:42:59;19.00;59.70
22714;DHT22;11524;50.846;4.326;2023-04-23T04:45:25;19.00;59.90
22714;DHT22;11524;50.846;4.326;2023-04-23T04:47:50;19.00;59.70
22714;DHT22;11524;50.846;4.326;2023-04-23T04:50:16;19.00;59.60
22714;DHT22;11524;50.846;4.326;2023-04-23T04:52:42;19.00;59.70
22714;DHT22;11524;50.846;4.326;2023-04-23T04:55:08;19.00;59.60
22714;DHT22;11524;50.846;4.326;2023-04-23T04:57:34;19.00;59.90
22714;DHT22;11524;50.846;4.326;2023-04-23T05:00:01;19.00;59.70
22714;DHT22;11524;50.846;4.326;2023-04-23T05:02:29;19.00;59.80
22714;DHT22;11524;50.846;4.326;2023-04-23T05:04:55;19.00;59.80
22714;DHT22;11524;50.846;4.326;2023-04-23T05:07:21;19.00;59.70
22714;DHT22;11524;50.846;4.326;2023-04-23T05:09:47;19.00;59.70
22714;DHT22;11524;50.846;4.326;2023-04-23T05:12:12;19.00;59.70
22714;DHT22;11524;50.846;4.326;2023-04-23T05:14:38;19.00;59.60
22714;DHT22;11524;50.846;4.326;2023-04-23T05:17:04;19.00;59.60
22714;DHT22;11524;50.846;4.326;2023-04-23T05:19:29;19.10;59.60
22714;DHT22;11524;50.846;4.326;2023-04-23T05:21:56;19.10;59.70
22714;DHT22;11524;50.846;4.326;2023-04-23T05:24:22;19.00;59.30
22714;DHT22;11524;50.846;4.326;2023-04-23T05:26:47;19.10;59.60
22714;DHT22;11524;50.846;4.326;2023-04-23T05:29:13;19.10;59.60
22714;DHT22;11524;50.846;4.326;2023-04-23T05:31:43;19.10;59.50
22714;DHT22;11524;50.846;4.326;2023-04-23T05:34:10;19.20;58.10
22714;DHT22;11524;50.846;4.326;2023-04-23T05:36:35;19.40;57.50
22714;DHT22;11524;50.846;4.326;2023-04-23T05:39:01;19.50;56.70
22714;DHT22;11524;50.846;4.326;2023-04-23T05:41:27;19.60;56.60
22714;DHT22;11524;50.846;4.326;2023-04-23T05:43:52;19.70;56.70
22714;DHT22;11524;50.846;4.326;2023-04-23T05:46:18;19.80;56.10
22714;DHT22;11524;50.846;4.326;2023-04-23T05:48:44;19.80;55.70
22714;DHT22;11524;50.846;4.326;2023-04-23T05:51:10;19.90;55.70
22714;DHT22;11524;50.846;4.326;2023-04-23T05:53:36;19.90;55.50
22714;DHT22;11524;50.846;4.326;2023-04-23T05:56:02;20.00;55.60
22714;DHT22;11524;50.846;4.326;2023-04-23T05:58:28;20.10;55.30
22714;DHT22;11524;50.846;4.326;2023-04-23T06:00:53;20.20;55.00
22714;DHT22;11524;50.846;4.326;2023-04-23T06:03:19;20.20;55.30
22714;DHT22;11524;50.846;4.326;2023-04-23T06:05:45;20.30;55.10
22714;DHT22;11524;50.846;4.326;2023-04-23T06:08:10;20.30;54.90
22714;DHT22;11524;50.846;4.326;2023-04-23T06:10:36;20.30;54.60
22714;DHT22;11524;50.846;4.326;2023-04-23T06:13:02;20.40;54.80
22714;DHT22;11524;50.846;4.326;2023-04-23T06:15:27;20.40;54.70
22714;DHT22;11524;50.846;4.326;2023-04-23T06:17:53;20.40;54.70
22714;DHT22;11524;50.846;4.326;2023-04-23T06:20:19;20.40;54.50
22714;DHT22;11524;50.846;4.326;2023-04-23T06:22:44;20.50;54.40
22714;DHT22;11524;50.846;4.326;2023-04-23T06:25:10;20.50;54.40
22714;DHT22;11524;50.846;4.326;2023-04-23T06:27:36;20.50;54.40
22714;DHT22;11524;50.846;4.326;2023-04-23T06:30:01;20.60;54.80
22714;DHT22;11524;50.846;4.326;2023-04-23T06:32:27;20.60;54.60
22714;DHT22;11524;50.846;4.326;2023-04-23T06:34:53;20.20;56.80
22714;DHT22;11524;50.846;4.326;2023-04-23T06:37:18;19.40;57.80
22714;DHT22;11524;50.846;4.326;2023-04-23T06:39:44;19.10;59.60
22714;DHT22;11524;50.846;4.326;2023-04-23T06:42:10;19.00;60.90
22714;DHT22;11524;50.846;4.326;2023-04-23T06:44:36;18.80;59.80
22714;DHT22;11524;50.846;4.326;2023-04-23T06:47:01;18.80;60.60
22714;DHT22;11524;50.846;4.326;2023-04-23T06:49:27;18.80;60.10
22714;DHT22;11524;50.846;4.326;2023-04-23T06:51:53;19.00;61.80
22714;DHT22;11524;50.846;4.326;2023-04-23T06:54:19;19.30;57.00
22714;DHT22;11524;50.846;4.326;2023-04-23T06:56:45;19.80;56.20
22714;DHT22;11524;50.846;4.326;2023-04-23T06:59:10;20.30;55.40
22714;DHT22;11524;50.846;4.326;2023-04-23T07:01:36;20.70;54.50
22714;DHT22;11524;50.846;4.326;2023-04-23T07:04:02;21.20;53.90
22714;DHT22;11524;50.846;4.326;2023-04-23T07:06:28;21.60;53.30
22714;DHT22;11524;50.846;4.326;2023-04-23T07:08:53;21.90;53.00
22714;DHT22;11524;50.846;4.326;2023-04-23T07:11:19;22.20;52.70
22714;DHT22;11524;50.846;4.326;2023-04-23T07:13:45;22.50;52.40
22714;DHT22;11524;50.846;4.326;2023-04-23T07:16:10;22.80;51.90
22714;DHT22;11524;50.846;4.326;2023-04-23T07:18:36;23.00;51.40
22714;DHT22;11524;50.846;4.326;2023-04-23T07:21:02;23.30;51.00
22714;DHT22;11524;50.846;4.326;2023-04-23T07:23:27;23.40;50.50
22714;DHT22;11524;50.846;4.326;2023-04-23T07:25:53;23.60;50.00
22714;DHT22;11524;50.846;4.326;2023-04-23T07:28:19;23.70;49.60
22714;DHT22;11524;50.846;4.326;2023-04-23T07:30:44;23.80;49.40
22714;DHT22;11524;50.846;4.326;2023-04-23T07:33:11;23.90;49.20
22714;DHT22;11524;50.846;4.326;2023-04-23T07:35:36;23.90;49.10
22714;DHT22;11524;50.846;4.326;2023-04-23T07:38:02;23.90;49.10
22714;DHT22;11524;50.846;4.326;2023-04-23T07:40:28;23.90;49.00
22714;DHT22;11524;50.846;4.326;2023-04-23T07:42:54;23.90;49.10
22714;DHT22;11524;50.846;4.326;2023-04-23T07:45:20;23.90;49.10
22714;DHT22;11524;50.846;4.326;2023-04-23T07:47:46;23.90;49.20
22714;DHT22;11524;50.846;4.326;2023-04-23T07:50:12;23.90;49.30
22714;DHT22;11524;50.846;4.326;2023-04-23T07:52:38;23.80;49.30
22714;DHT22;11524;50.846;4.326;2023-04-23T07:55:04;23.80;49.40
22714;DHT22;11524;50.846;4.326;2023-04-23T07:57:30;23.70;49.50
22714;DHT22;11524;50.846;4.326;2023-04-23T08:00:05;23.70;49.60
22714;DHT22;11524;50.846;4.326;2023-04-23T08:02:34;23.60;49.60
22714;DHT22;11524;50.846;4.326;2023-04-23T08:05:00;23.60;49.70
22714;DHT22;11524;50.846;4.326;2023-04-23T08:07:25;23.60;49.70
22714;DHT22;11524;50.846;4.326;2023-04-23T08:09:51;23.60;49.70
22714;DHT22;11524;50.846;4.326;2023-04-23T08:12:18;23.60;49.70
22714;DHT22;11524;50.846;4.326;2023-04-23T08:14:43;23.50;48.50
22714;DHT22;11524;50.846;4.326;2023-04-23T08:17:11;23.40;49.20
22714;DHT22;11524;50.846;4.326;2023-04-23T08:19:37;23.40;49.40
22714;DHT22;11524;50.846;4.326;2023-04-23T08:22:02;23.40;49.60
22714;DHT22;11524;50.846;4.326;2023-04-23T08:24:28;23.40;49.50
22714;DHT22;11524;50.846;4.326;2023-04-23T08:26:54;23.50;49.40
22714;DHT22;11524;50.846;4.326;2023-04-23T08:29:20;23.50;49.50
22714;DHT22;11524;50.846;4.326;2023-04-23T08:31:46;23.50;49.60
22714;DHT22;11524;50.846;4.326;2023-04-23T08:34:11;23.50;49.70
22714;DHT22;11524;50.846;4.326;2023-04-23T08:36:39;23.50;49.80
22714;DHT22;11524;50.846;4.326;2023-04-23T08:39:04;23.50;49.90
22714;DHT22;11524;50.846;4.326;2023-04-23T08:41:38;23.60;50.00
22714;DHT22;11524;50.846;4.326;2023-04-23T08:46:41;23.60;51.30
22714;DHT22;11524;50.846;4.326;2023-04-23T08:49:07;23.60;51.30
22714;DHT22;11524;50.846;4.326;2023-04-23T08:51:37;23.60;50.30
22714;DHT22;11524;50.846;4.326;2023-04-23T08:54:06;23.50;50.10
22714;DHT22;11524;50.846;4.326;2023-04-23T08:56:34;23.60;49.90
22714;DHT22;11524;50.846;4.326;2023-04-23T08:59:02;23.60;50.20
22714;DHT22;11524;50.846;4.326;2023-04-23T09:01:29;23.50;49.70
22714;DHT22;11524;50.846;4.326;2023-04-23T09:03:55;23.50;49.40
22714;DHT22;11524;50.846;4.326;2023-04-23T09:06:21;23.50;49.50
22714;DHT22;11524;50.846;4.326;2023-04-23T09:08:47;23.30;50.20
22714;DHT22;11524;50.846;4.326;2023-04-23T09:11:14;23.30;49.70
22714;DHT22;11524;50.846;4.326;2023-04-23T09:13:40;23.30;49.40
22714;DHT22;11524;50.846;4.326;2023-04-23T09:16:06;23.30;49.20
22714;DHT22;11524;50.846;4.326;2023-04-23T09:18:31;23.20;49.10
22714;DHT22;11524;50.846;4.326;2023-04-23T09:20:57;23.30;49.20
22714;DHT22;11524;50.846;4.326;2023-04-23T09:23:23;23.20;49.30
22714;DHT22;11524;50.846;4.326;2023-04-23T09:25:49;23.20;49.30
22714;DHT22;11524;50.846;4.326;2023-04-23T09:28:18;23.20;49.30
22714;DHT22;11524;50.846;4.326;2023-04-23T09:30:44;23.20;49.50
22714;DHT22;11524;50.846;4.326;2023-04-23T09:33:11;23.10;49.40
22714;DHT22;11524;50.846;4.326;2023-04-23T09:35:37;23.10;49.30
22714;DHT22;11524;50.846;4.326;2023-04-23T09:38:03;23.10;49.90
22714;DHT22;11524;50.846;4.326;2023-04-23T09:40:32;23.10;50.00
22714;DHT22;11524;50.846;4.326;2023-04-23T09:42:58;23.10;49.80
22714;DHT22;11524;50.846;4.326;2023-04-23T09:45:24;23.10;49.40
22714;DHT22;11524;50.846;4.326;2023-04-23T09:47:55;23.10;50.60
22714;DHT22;11524;50.846;4.326;2023-04-23T09:50:35;23.10;52.30
22714;DHT22;11524;50.846;4.326;2023-04-23T09:53:02;23.20;52.90
22714;DHT22;11524;50.846;4.326;2023-04-23T09:55:36;23.30;53.20
22714;DHT22;11524;50.846;4.326;2023-04-23T09:58:05;23.20;53.10
22714;DHT22;11524;50.846;4.326;2023-04-23T10:00:35;23.20;52.70
22714;DHT22;11524;50.846;4.326;2023-04-23T10:03:01;23.30;51.80
22714;DHT22;11524;50.846;4.326;2023-04-23T10:05:27;23.30;51.20
22714;DHT22;11524;50.846;4.326;2023-04-23T10:07:55;23.30;51.30
22714;DHT22;11524;50.846;4.326;2023-04-23T10:10:22;23.30;51.60
22714;DHT22;11524;50.846;4.326;2023-04-23T10:12:48;23.30;51.10
22714;DHT22;11524;50.846;4.326;2023-04-23T10:15:19;23.30;50.20
22714;DHT22;11524;50.846;4.326;2023-04-23T10:17:45;23.30;49.70
22714;DHT22;11524;50.846;4.326;2023-04-23T10:20:12;23.20;49.60
22714;DHT22;11524;50.846;4.326;2023-04-23T10:22:40;23.10;49.50
22714;DHT22;11524;50.846;4.326;2023-04-23T10:25:10;23.10;49.30
22714;DHT22;11524;50.846;4.326;2023-04-23T10:27:38;23.00;49.30
22714;DHT22;11524;50.846;4.326;2023-04-23T10:30:06;23.00;49.20
22714;DHT22;11524;50.846;4.326;2023-04-23T10:32:36;23.00;49.90
22714;DHT22;11524;50.846;4.326;2023-04-23T10:35:03;22.90;48.90
22714;DHT22;11524;50.846;4.326;2023-04-23T10:37:30;22.90;48.50
22714;DHT22;11524;50.846;4.326;2023-04-23T10:40:04;22.90;48.80
22714;DHT22;11524;50.846;4.326;2023-04-23T10:42:32;22.90;49.50
22714;DHT22;11524;50.846;4.326;2023-04-23T10:44:58;22.80;49.30
22714;DHT22;11524;50.846;4.326;2023-04-23T10:47:24;22.80;48.80
22714;DHT22;11524;50.846;4.326;2023-04-23T10:49:49;22.90;49.90
22714;DHT22;11524;50.846;4.326;2023-04-23T10:52:17;22.90;50.50
22714;DHT22;11524;50.846;4.326;2023-04-23T10:54:55;22.90;49.50
22714;DHT22;11524;50.846;4.326;2023-04-23T10:57:22;22.80;48.40
22714;DHT22;11524;50.846;4.326;2023-04-23T10:59:53;22.90;49.00
22714;DHT22;11524;50.846;4.326;2023-04-23T11:02:20;22.90;48.20
22714;DHT22;11524;50.846;4.326;2023-04-23T11:04:54;22.80;48.60
22714;DHT22;11524;50.846;4.326;2023-04-23T11:07:33;22.80;48.60
22714;DHT22;11524;50.846;4.326;2023-04-23T11:10:01;22.80;48.20
22714;DHT22;11524;50.846;4.326;2023-04-23T11:12:35;22.80;48.90
22714;DHT22;11524;50.846;4.326;2023-04-23T11:15:15;22.70;48.50
22714;DHT22;11524;50.846;4.326;2023-04-23T11:20:14;22.80;49.20
22714;DHT22;11524;50.846;4.326;2023-04-23T11:22:51;22.80;48.90
22714;DHT22;11524;50.846;4.326;2023-04-23T11:27:47;22.80;49.30
22714;DHT22;11524;50.846;4.326;2023-04-23T11:30:18;22.70;48.70
22714;DHT22;11524;50.846;4.326;2023-04-23T11:32:45;22.80;48.30
22714;DHT22;11524;50.846;4.326;2023-04-23T11:35:14;22.70;48.30
22714;DHT22;11524;50.846;4.326;2023-04-23T11:37:41;22.70;48.90
22714;DHT22;11524;50.846;4.326;2023-04-23T11:40:08;22.70;48.70
22714;DHT22;11524;50.846;4.326;2023-04-23T11:43:01;22.70;48.90
22714;DHT22;11524;50.846;4.326;2023-04-23T11:45:28;22.60;48.30
22714;DHT22;11524;50.846;4.326;2023-04-23T11:47:56;22.60;48.30
22714;DHT22;11524;50.846;4.326;2023-04-23T11:50:29;22.60;48.70
22714;DHT22;11524;50.846;4.326;2023-04-23T11:53:03;22.50;48.40
22714;DHT22;11524;50.846;4.326;2023-04-23T11:55:29;22.50;48.70
22714;DHT22;11524;50.846;4.326;2023-04-23T11:57:55;22.50;49.20
22714;DHT22;11524;50.846;4.326;2023-04-23T12:00:24;22.50;49.20
22714;DHT22;11524;50.846;4.326;2023-04-23T12:02:53;22.50;49.40
22714;DHT22;11524;50.846;4.326;2023-04-23T12:05:40;22.40;49.00
22714;DHT22;11524;50.846;4.326;2023-04-23T12:08:32;22.40;49.30
22714;DHT22;11524;50.846;4.326;2023-04-23T12:11:19;22.40;49.40
22714;DHT22;11524;50.846;4.326;2023-04-23T12:13:55;22.40;49.10
22714;DHT22;11524;50.846;4.326;2023-04-23T12:16:45;22.40;49.20
22714;DHT22;11524;50.846;4.326;2023-04-23T12:19:35;22.30;49.50
22714;DHT22;11524;50.846;4.326;2023-04-23T12:22:14;22.30;49.40
22714;DHT22;11524;50.846;4.326;2023-04-23T12:24:49;22.20;49.70
22714;DHT22;11524;50.846;4.326;2023-04-23T12:32:49;22.20;49.80
22714;DHT22;11524;50.846;4.326;2023-04-23T12:35:14;22.20;50.60
22714;DHT22;11524;50.846;4.326;2023-04-23T12:37:40;22.20;50.20
22714;DHT22;11524;50.846;4.326;2023-04-23T12:40:06;22.10;50.30
22714;DHT22;11524;50.846;4.326;2023-04-23T12:42:35;22.10;50.60
22714;DHT22;11524;50.846;4.326;2023-04-23T12:45:06;22.10;50.50
22714;DHT22;11524;50.846;4.326;2023-04-23T12:47:32;22.10;50.60
22714;DHT22;11524;50.846;4.326;2023-04-23T12:49:57;22.10;50.80
22714;DHT22;11524;50.846;4.326;2023-04-23T12:52:26;22.10;51.40
22714;DHT22;11524;50.846;4.326;2023-04-23T12:54:51;22.10;50.90
22714;DHT22;11524;50.846;4.326;2023-04-23T12:57:20;22.00;51.10
22714;DHT22;11524;50.846;4.326;2023-04-23T12:59:47;22.00;51.70
22714;DHT22;11524;50.846;4.326;2023-04-23T13:02:13;21.90;51.60
22714;DHT22;11524;50.846;4.326;2023-04-23T13:04:39;22.00;51.70
22714;DHT22;11524;50.846;4.326;2023-04-23T13:07:05;21.90;52.90
22714;DHT22;11524;50.846;4.326;2023-04-23T13:09:39;21.80;53.00
22714;DHT22;11524;50.846;4.326;2023-04-23T13:12:05;21.80;53.40
22714;DHT22;11524;50.846;4.326;2023-04-23T13:14:33;21.80;53.20
22714;DHT22;11524;50.846;4.326;2023-04-23T13:16:59;21.80;52.90
22714;DHT22;11524;50.846;4.326;2023-04-23T13:19:31;21.80;53.00
22714;DHT22;11524;50.846;4.326;2023-04-23T13:21:58;21.80;52.50
22714;DHT22;11524;50.846;4.326;2023-04-23T13:24:24;21.80;52.60
22714;DHT22;11524;50.846;4.326;2023-04-23T13:26:49;21.80;52.40
22714;DHT22;11524;50.846;4.326;2023-04-23T13:29:15;21.80;52.50
22714;DHT22;11524;50.846;4.326;2023-04-23T13:31:41;21.80;52.60
22714;DHT22;11524;50.846;4.326;2023-04-23T13:34:06;21.80;52.30
22714;DHT22;11524;50.846;4.326;2023-04-23T13:36:32;21.80;52.50
22714;DHT22;11524;50.846;4.326;2023-04-23T13:38:58;21.80;52.30
22714;DHT22;11524;50.846;4.326;2023-04-23T13:41:23;21.80;52.60
22714;DHT22;11524;50.846;4.326;2023-04-23T13:43:50;21.80;52.50
22714;DHT22;11524;50.846;4.326;2023-04-23T13:46:17;21.80;52.70
22714;DHT22;11524;50.846;4.326;2023-04-23T13:48:43;21.80;52.60
22714;DHT22;11524;50.846;4.326;2023-04-23T13:51:09;21.70;52.70
22714;DHT22;11524;50.846;4.326;2023-04-23T13:53:35;21.70;52.90
22714;DHT22;11524;50.846;4.326;2023-04-23T13:56:00;21.70;52.60
22714;DHT22;11524;50.846;4.326;2023-04-23T13:58:26;21.70;52.30
22714;DHT22;11524;50.846;4.326;2023-04-23T14:00:53;21.70;52.80
22714;DHT22;11524;50.846;4.326;2023-04-23T14:03:19;21.70;52.60
22714;DHT22;11524;50.846;4.326;2023-04-23T14:05:45;21.60;52.60
22714;DHT22;11524;50.846;4.326;2023-04-23T14:08:10;21.60;52.70
22714;DHT22;11524;50.846;4.326;2023-04-23T14:10:37;21.60;52.90
22714;DHT22;11524;50.846;4.326;2023-04-23T14:13:03;21.60;52.90
22714;DHT22;11524;50.846;4.326;2023-04-23T14:15:29;21.60;53.40
22714;DHT22;11524;50.846;4.326;2023-04-23T14:17:57;21.60;53.40
22714;DHT22;11524;50.846;4.326;2023-04-23T14:20:24;21.60;53.50
22714;DHT22;11524;50.846;4.326;2023-04-23T14:23:00;21.60;53.50
22714;DHT22;11524;50.846;4.326;2023-04-23T14:25:34;21.60;53.40
22714;DHT22;11524;50.846;4.326;2023-04-23T14:28:22;21.60;53.40
22714;DHT22;11524;50.846;4.326;2023-04-23T14:30:46;21.60;52.90
22714;DHT22;11524;50.846;4.326;2023-04-23T14:33:12;21.50;53.60
22714;DHT22;11524;50.846;4.326;2023-04-23T14:35:37;21.50;53.70
22714;DHT22;11524;50.846;4.326;2023-04-23T14:38:03;21.60;53.50
22714;DHT22;11524;50.846;4.326;2023-04-23T14:40:29;21.60;53.80
22714;DHT22;11524;50.846;4.326;2023-04-23T14:42:54;21.60;53.70
22714;DHT22;11524;50.846;4.326;2023-04-23T14:45:20;21.60;53.70
22714;DHT22;11524;50.846;4.326;2023-04-23T14:47:46;21.60;53.50
22714;DHT22;11524;50.846;4.326;2023-04-23T14:50:15;21.60;53.40
22714;DHT22;11524;50.846;4.326;2023-04-23T14:52:46;21.60;53.30
22714;DHT22;11524;50.846;4.326;2023-04-23T14:55:12;21.60;53.30
22714;DHT22;11524;50.846;4.326;2023-04-23T14:57:38;21.60;53.20
22714;DHT22;11524;50.846;4.326;2023-04-23T15:00:05;21.60;53.30
22714;DHT22;11524;50.846;4.326;2023-04-23T15:02:33;21.60;53.50
22714;DHT22;11524;50.846;4.326;2023-04-23T15:04:59;21.60;53.20
22714;DHT22;11524;50.846;4.326;2023-04-23T15:07:25;21.60;53.30
22714;DHT22;11524;50.846;4.326;2023-04-23T15:09:51;21.60;53.40
22714;DHT22;11524;50.846;4.326;2023-04-23T15:15:05;21.60;53.20
22714;DHT22;11524;50.846;4.326;2023-04-23T15:17:38;21.60;53.10
22714;DHT22;11524;50.846;4.326;2023-04-23T15:20:04;21.70;53.20
22714;DHT22;11524;50.846;4.326;2023-04-23T15:22:30;21.60;53.10
22714;DHT22;11524;50.846;4.326;2023-04-23T15:24:55;21.60;53.10
22714;DHT22;11524;50.846;4.326;2023-04-23T15:27:21;21.60;53.40
22714;DHT22;11524;50.846;4.326;2023-04-23T15:29:48;21.60;53.40
22714;DHT22;11524;50.846;4.326;2023-04-23T15:32:15;21.60;53.50
22714;DHT22;11524;50.846;4.326;2023-04-23T15:34:41;21.60;53.40
22714;DHT22;11524;50.846;4.326;2023-04-23T15:37:06;21.60;53.60
22714;DHT22;11524;50.846;4.326;2023-04-23T15:39:32;21.60;54.00
22714;DHT22;11524;50.846;4.326;2023-04-23T15:41:58;21.50;54.20
22714;DHT22;11524;50.846;4.326;2023-04-23T15:44:24;21.50;54.30